Latest Weather Observations for Lombadina

IDW60801

Issued at 11:05 am WST Wednesday 30 July 2014 (issued every 30 minutes, with the page automatically refreshed every 10 minutes)

About weather observations | Map of weather stations | Latest weather observations for WA | Other Formats
Station Details ID: 503016 Name: LOMBADINA AIRSTRIP Lat: -16.52 Lon: 122.92 Height: 42.0 m
Data from the previous 72 hours. | See also: Recent months for locations in Western Australia
Date/Time
WST
Temp
°C
App
Temp
°C
Dew
Point
Rel
Hum
%
Delta-T
°C
Wind Press
QNH
hPa
Press
MSL
hPa
Rain
since 9 am
mm
Dir
 
Spd
km/h
Gust
km/h
Spd
kts
Gust
kts
30/11:00am 27.3 27.0 14.4 45 7.7 E 9 15 5 8 1016.4 1016.2 0.0
30/10:30am 26.8 26.1 14.4 46 7.4 SE 11 17 6 9 1016.8 - 0.0
30/10:00am 26.4 25.9 14.8 49 7.0 ESE 11 19 6 10 1017.1 1016.9 0.0
30/09:30am 25.9 25.6 15.4 52 6.4 ESE 11 17 6 9 1017.3 - 0.0
30/09:00am 25.1 24.8 15.4 55 5.9 ESE 11 19 6 10 1017.3 1017.1 0.0
30/08:30am 24.1 23.7 14.1 53 5.9 ESE 9 19 5 10 1017.4 - 0.0
30/08:00am 23.1 22.5 13.6 55 5.5 SE 9 17 5 9 1017.1 1016.9 0.0
30/07:30am 22.1 21.6 12.7 55 5.4 SE 7 13 4 7 1016.9 - 0.0
30/07:00am 21.4 20.7 11.4 53 5.5 SE 6 11 3 6 1016.6 1016.4 0.0
30/06:30am 20.8 19.5 9.8 49 5.9 SE 7 13 4 7 1016.4 - 0.0
30/06:00am 21.2 19.1 8.1 43 6.8 SE 9 17 5 9 1016.2 1016.0 0.0
30/05:30am 21.4 19.1 7.5 40 7.2 ESE 9 15 5 8 1015.8 - 0.0
30/05:00am 21.6 19.5 6.7 38 7.6 SE 7 11 4 6 1015.3 1015.1 0.0
30/04:30am 23.0 20.4 6.3 34 8.5 SSE 9 13 5 7 1015.1 - 0.0
30/04:00am 23.1 20.9 6.4 34 8.5 SSE 7 15 4 8 1015.0 1014.8 0.0
30/03:30am 23.0 20.6 7.1 36 8.2 S 9 17 5 9 1014.9 - 0.0
30/03:00am 23.4 21.6 7.8 36 8.2 S 7 13 4 7 1014.8 1014.6 0.0
30/02:30am 24.0 21.7 7.6 35 8.6 S 9 17 5 9 1015.0 - 0.0
30/02:00am 23.2 21.5 8.4 38 7.9 S 7 13 4 7 1015.1 1014.9 0.0
30/01:30am 23.2 21.9 9.3 41 7.5 S 6 13 3 7 1015.4 - 0.0
30/01:00am 23.5 22.2 9.1 40 7.8 S 6 11 3 6 1015.5 1015.3 0.0
30/12:30am 23.2 22.0 9.5 41 7.4 SSW 6 11 3 6 1015.5 - 0.0
30/12:00am 22.7 21.6 9.8 44 7.0 SSW 6 11 3 6 1015.7 1015.5 0.0
 
Date/Time
WST
Temp
°C
App
Temp
°C
Dew
Point
Rel
Hum
%
Delta-T
°C
Wind Press
QNH
hPa
Press
MSL
hPa
Rain
since 9 am
mm
Dir
 
Spd
km/h
Gust
km/h
Spd
kts
Gust
kts
29/11:30pm 22.1 21.2 10.5 47 6.4 SSW 6 11 3 6 1015.8 - 0.0
29/11:00pm 22.0 21.3 11.9 52 5.7 SSW 7 11 4 6 1015.9 1015.7 0.0
29/10:30pm 21.7 21.2 12.7 56 5.1 SSW 7 9 4 5 1016.0 - 0.0
29/10:00pm 21.1 21.0 13.9 63 4.2 SSW 7 13 4 7 1016.0 1015.8 0.0
29/09:30pm 20.7 21.0 14.6 68 3.6 SW 6 9 3 5 1016.0 - 0.0
29/09:00pm 21.4 21.7 14.9 66 3.8 SSW 7 11 4 6 1016.1 1015.9 0.0
29/08:30pm 22.0 23.0 16.4 70 3.4 SW 6 11 3 6 1016.0 - 0.0
29/08:00pm 21.1 22.9 18.2 83 1.8 SW 6 9 3 5 1015.8 1015.6 0.0
29/07:30pm 21.0 22.8 17.5 80 2.2 WSW 4 7 2 4 1015.7 - 0.0
29/07:00pm 21.5 23.8 18.5 83 1.9 W 4 6 2 3 1015.6 1015.4 0.0
29/06:30pm 23.2 25.4 19.1 78 2.6 N 6 11 3 6 1015.5 - 0.0
29/06:00pm 23.5 26.4 19.1 76 2.8 WSW 2 6 1 3 1015.3 1015.1 0.0
29/05:30pm 25.3 27.9 19.2 69 3.9 NNW 4 7 2 4 1015.2 - 0.0
29/05:00pm 27.2 29.2 17.9 56 5.9 W 4 6 2 3 1014.9 1014.7 0.0
29/04:30pm 27.7 28.3 16.9 51 6.8 NW 9 11 5 6 1014.5 - 0.0
29/04:00pm 28.5 29.4 16.7 48 7.4 NW 7 11 4 6 1014.4 1014.2 0.0
29/03:30pm 30.5 29.5 10.4 28 11.5 ESE 6 11 3 6 1014.3 - 0.0
29/03:00pm 30.5 29.5 11.0 30 11.2 ESE 7 11 4 6 1014.2 1014.0 0.0
29/02:30pm 30.8 29.9 10.8 29 11.5 E 6 9 3 5 1014.3 - 0.0
29/02:00pm 30.0 29.8 13.0 35 10.1 E 6 9 3 5 1014.6 1014.4 0.0
29/01:30pm 29.5 28.5 12.4 35 10.0 E 9 15 5 8 1014.8 - 0.0
29/01:00pm 29.1 28.8 14.4 40 8.9 E 9 15 5 8 1015.1 1014.9 0.0
29/12:30pm 29.6 28.7 12.7 35 10.0 ESE 9 13 5 7 1015.5 - 0.0
29/12:00pm 28.3 26.9 13.4 40 8.8 ESE 13 22 7 12 1016.0 1015.8 0.0
29/11:30am 28.5 27.8 13.3 39 9.0 ESE 9 19 5 10 1016.2 - 0.0
29/11:00am 28.4 27.7 14.4 42 8.4 E 11 17 6 9 1016.4 1016.2 0.0
29/10:30am 29.7 29.1 11.6 32 10.5 E 6 9 3 5 1016.6 - 0.0
29/10:00am 28.1 27.9 13.7 41 8.6 E 7 11 4 6 1017.1 1016.9 0.0
29/09:30am 27.0 27.3 15.0 47 7.3 ESE 7 11 4 6 1017.3 - 0.0
29/09:00am 25.9 26.3 15.3 52 6.4 ESE 7 15 4 8 1017.3 1017.1 0.0
29/08:30am 25.7 27.3 16.8 58 5.5 SE 4 7 2 4 1017.1 - 0.0
29/08:00am 24.7 25.3 15.4 56 5.6 SE 6 9 3 5 1016.9 1016.7 0.0
29/07:30am 24.4 24.3 13.9 52 6.2 SE 7 11 4 6 1016.7 - 0.0
29/07:00am 23.2 24.7 17.6 71 3.5 E 6 9 3 5 1016.5 1016.3 0.0
29/06:30am 22.5 23.6 16.5 69 3.7 ESE 6 7 3 4 1016.1 - 0.0
29/06:00am 22.4 23.3 16.1 67 3.8 E 6 9 3 5 1015.9 1015.7 0.0
29/05:30am 22.8 23.0 14.8 60 4.7 E 7 11 4 6 1015.7 - 0.0
29/05:00am 22.7 22.9 14.3 59 4.9 ESE 6 9 3 5 1015.6 1015.4 0.0
29/04:30am 22.7 22.4 12.7 53 5.7 ESE 6 9 3 5 1015.5 - 0.0
29/04:00am 22.6 21.8 11.0 48 6.4 ESE 6 11 3 6 1015.3 1015.1 0.0
29/03:30am 23.4 22.2 9.4 41 7.6 SSE 6 11 3 6 1015.0 - 0.0
29/03:00am 22.0 21.5 10.8 49 6.2 SSE 4 6 2 3 1015.1 1014.9 0.0
29/02:30am 21.6 20.7 9.1 44 6.7 S 4 7 2 4 1014.9 - 0.0
29/02:00am 21.9 20.4 8.4 42 7.1 S 6 9 3 5 1014.9 1014.7 0.0
29/01:30am 21.5 20.3 9.4 46 6.5 S 6 9 3 5 1015.0 - 0.0
29/01:00am 20.9 20.6 11.5 55 5.2 S 4 6 2 3 1015.3 1015.1 0.0
29/12:30am 21.3 20.6 11.4 53 5.5 SSW 6 7 3 4 1015.4 - 0.0
29/12:00am 21.9 20.8 10.1 47 6.4 SSW 6 9 3 5 1015.4 1015.2 0.0
 
Date/Time
WST
Temp
°C
App
Temp
°C
Dew
Point
Rel
Hum
%
Delta-T
°C
Wind Press
QNH
hPa
Press
MSL
hPa
Rain
since 9 am
mm
Dir
 
Spd
km/h
Gust
km/h
Spd
kts
Gust
kts
28/11:30pm 20.7 19.8 10.6 52 5.5 S 6 7 3 4 1015.6 - 0.0
28/11:00pm 20.5 20.0 10.8 53 5.3 SSW 4 7 2 4 1015.9 1015.7 0.0
28/10:30pm 20.5 19.5 10.4 52 5.5 SSW 6 9 3 5 1015.8 - 0.0
28/10:00pm 19.9 19.2 11.3 57 4.7 SSW 6 9 3 5 1015.9 1015.7 0.0
28/09:30pm 20.7 19.6 9.9 50 5.8 SW 6 7 3 4 1015.9 - 0.0
28/09:00pm 21.0 20.0 11.1 53 5.5 SW 7 9 4 5 1015.9 1015.7 0.0
28/08:30pm 20.5 21.2 14.6 69 3.5 SW 4 7 2 4 1015.8 - 0.0
28/08:00pm 20.1 20.8 15.6 75 2.7 SSW 6 7 3 4 1015.8 1015.6 0.0
28/07:30pm 19.8 20.6 14.8 73 2.9 SSW 4 6 2 3 1015.6 - 0.0
28/07:00pm 20.3 21.9 14.9 71 3.2 CALM 0 2 0 1 1015.4 1015.2 0.0
28/06:30pm 21.2 22.3 14.5 65 3.9 SSE 2 4 1 2 1015.1 - 0.0
28/06:00pm 22.2 23.6 14.3 61 4.6 CALM 0 4 0 2 1014.8 1014.6 0.0
28/05:30pm 24.6 25.7 14.6 53 6.0 NW 2 6 1 3 1014.6 - 0.0
28/05:00pm 27.5 27.5 13.7 42 8.2 WNW 6 7 3 4 1014.3 1014.1 0.0
28/04:30pm 28.8 28.6 11.8 35 9.9 NW 4 7 2 4 1014.1 - 0.0
28/04:00pm 29.4 28.5 11.2 32 10.5 NW 7 11 4 6 1014.1 1013.9 0.0
28/03:30pm 29.9 28.4 9.3 27 11.5 WNW 7 13 4 7 1014.0 - 0.0
28/03:00pm 30.3 28.1 8.0 24 12.2 W 9 17 5 9 1013.9 1013.7 0.0
28/02:30pm 30.5 28.2 7.6 24 12.5 W 9 15 5 8 1013.9 - 0.0
28/02:00pm 31.0 28.8 8.0 24 12.7 WSW 9 15 5 8 1014.1 1013.9 0.0
28/01:30pm 31.2 29.2 7.0 22 13.1 W 7 13 4 7 1014.4 - 0.0
28/01:00pm 30.7 28.4 7.6 23 12.6 WNW 9 15 5 8 1014.9 1014.7 0.0
28/12:30pm 31.1 28.7 6.9 22 13.1 WNW 9 17 5 9 1015.2 - 0.0
28/12:00pm 30.9 28.9 7.2 22 12.9 WNW 7 15 4 8 1015.7 1015.5 0.0
28/11:30am 29.8 28.2 8.1 25 11.9 WNW 6 9 3 5 1016.2 - 0.0
28/11:00am 29.3 28.4 9.1 28 11.2 NW 4 7 2 4 1016.8 1016.6 0.0
28/10:30am 29.4 27.9 8.4 27 11.5 N 6 11 3 6 1017.4 - 0.0
28/10:00am 28.4 26.4 7.2 26 11.3 W 7 13 4 7 1017.2 1017.0 0.0
28/09:30am 27.3 25.4 6.5 26 10.9 WSW 6 7 3 4 1017.5 - 0.0
28/09:00am 27.1 26.3 8.0 30 10.3 SW 2 6 1 3 1017.7 1017.5 0.0
28/08:30am 25.5 24.8 8.5 34 9.2 WNW 2 6 1 3 1017.7 - 0.0
28/08:00am 23.5 24.4 14.0 55 5.6 NE 2 7 1 4 1017.5 1017.3 0.0
28/07:30am 20.7 21.4 12.2 58 4.8 CALM 0 2 0 1 1017.2 - 0.0
28/07:00am 20.0 19.7 10.2 53 5.3 ESE 2 7 1 4 1017.0 1016.8 0.0
28/06:30am 19.3 18.0 9.3 52 5.3 NNW 6 11 3 6 1016.8 - 0.0
28/06:00am 18.8 17.8 10.4 58 4.5 NW 6 9 3 5 1016.6 1016.4 0.0
28/05:30am 20.2 19.0 7.9 45 6.4 SSW 4 6 2 3 1016.2 - 0.0
28/05:00am 22.6 20.9 6.0 34 8.4 S 4 9 2 5 1016.0 1015.8 0.0
28/04:30am 22.7 20.6 5.6 33 8.6 S 6 9 3 5 1015.9 - 0.0
28/04:00am 23.0 20.9 5.9 33 8.7 S 6 11 3 6 1015.7 1015.5 0.0
28/03:30am 22.7 20.8 6.5 35 8.3 S 6 13 3 7 1015.6 - 0.0
28/03:00am 21.1 19.4 7.6 41 7.0 S 6 7 3 4 1015.5 1015.3 0.0
28/02:30am 22.4 20.6 7.0 37 7.9 S 6 9 3 5 1015.5 - 0.0
28/02:00am 22.6 20.9 7.6 38 7.8 S 6 9 3 5 1015.6 1015.4 0.0
28/01:30am 22.4 20.8 7.8 39 7.6 S 6 11 3 6 1015.8 - 0.0
28/01:00am 21.1 19.9 9.6 47 6.2 S 6 7 3 4 1016.1 1015.9 0.0
28/12:30am 20.9 19.8 9.8 49 6.0 SSW 6 9 3 5 1016.2 - 0.0
28/12:00am 22.3 20.6 8.2 40 7.4 SSW 7 11 4 6 1016.3 1016.1 0.0
 
Date/Time
WST
Temp
°C
App
Temp
°C
Dew
Point
Rel
Hum
%
Delta-T
°C
Wind Press
QNH
hPa
Press
MSL
hPa
Rain
since 9 am
mm
Dir
 
Spd
km/h
Gust
km/h
Spd
kts
Gust
kts
27/11:30pm 21.1 20.0 10.1 49 6.0 SSW 6 9 3 5 1016.5 - 0.0
27/11:00pm 22.0 20.8 9.6 45 6.7 SW 6 11 3 6 1016.6 1016.4 0.0
27/10:30pm 21.3 20.3 10.2 49 6.0 SSW 6 9 3 5 1016.7 - 0.0
27/10:00pm 20.3 19.6 11.4 56 4.9 SW 6 9 3 5 1016.7 1016.5 0.0
27/09:30pm 20.3 20.1 13.1 63 4.1 SW 6 9 3 5 1016.7 - 0.0
27/09:00pm 20.1 20.2 13.9 67 3.6 SW 6 7 3 4 1016.6 1016.4 0.0
27/08:30pm 20.8 21.1 14.9 69 3.5 SW 7 9 4 5 1016.6 - 0.0
27/08:00pm 19.6 19.8 13.0 65 3.7 SW 4 6 2 3 1016.5 1016.3 0.0
27/07:30pm 20.7 20.7 12.3 58 4.7 W 4 7 2 4 1016.4 - 0.0
27/07:00pm 21.1 20.7 12.4 57 4.9 SW 6 7 3 4 1016.2 1016.0 0.0
27/06:30pm 21.0 22.2 14.8 67 3.6 WSW 2 4 1 2 1016.0 - 0.0
27/06:00pm 21.7 22.7 15.3 67 3.8 SW 4 6 2 3 1015.7 1015.5 0.0
27/05:30pm 24.1 25.4 15.2 57 5.3 WNW 2 4 1 2 1015.6 - 0.0
27/05:00pm 27.3 28.6 15.2 47 7.4 WNW 2 6 1 3 1015.4 1015.2 0.0
27/04:30pm 27.6 27.5 13.9 43 8.2 NW 7 13 4 7 1015.3 - 0.0
27/04:00pm 30.3 30.5 11.9 32 10.7 S 2 7 1 4 1015.2 1015.0 0.0
27/03:30pm 29.4 29.0 12.4 35 10.0 ESE 6 11 3 6 1015.1 - 0.0
27/03:00pm 29.0 29.6 15.8 44 8.1 E 7 13 4 7 1015.1 1014.9 0.0
27/02:30pm 30.0 28.7 10.1 29 11.3 NW 7 11 4 6 1015.0 - 0.0
27/02:00pm 29.8 28.7 11.8 33 10.5 ENE 9 19 5 10 1015.2 1015.0 0.0
27/01:30pm 31.1 29.9 9.6 26 12.2 W 6 11 3 6 1015.3 - 0.0
27/01:00pm 30.6 29.3 9.8 27 11.8 NW 7 13 4 7 1015.6 1015.4 0.0
27/12:30pm 30.8 29.4 9.4 26 12.0 WNW 7 13 4 7 1016.1 - 0.0
27/12:00pm 30.0 29.7 10.0 29 11.3 NW 2 7 1 4 1016.6 1016.4 0.0
27/11:30am 29.0 29.6 13.1 37 9.4 NW 2 7 1 4 1017.1 - 0.0

Other Formats:

Comma delimited format used in spreadsheet applications
http://www.bom.gov.au/fwo/IDW60801/IDW60801.99206.axf

JavaScript Object Notation format (JSON) in row-major order
http://www.bom.gov.au/fwo/IDW60801/IDW60801.99206.json